sensor_id;sensor_type;location;lat;lon;timestamp;pressure;altitude;pressure_sealevel;temperature;humidity
21086;BME280;72320;50.082;20.000;2024-02-28T00:00:29;98993.55;;;12.27;66.59
21086;BME280;72320;50.082;20.000;2024-02-28T00:02:55;99003.09;;;12.24;66.80
21086;BME280;72320;50.082;20.000;2024-02-28T00:05:21;98995.80;;;12.20;66.91
21086;BME280;72320;50.082;20.000;2024-02-28T00:07:47;98995.39;;;12.18;66.98
21086;BME280;72320;50.082;20.000;2024-02-28T00:10:14;98996.47;;;12.16;67.27
21086;BME280;72320;50.082;20.000;2024-02-28T00:12:40;98996.06;;;12.14;67.33
21086;BME280;72320;50.082;20.000;2024-02-28T00:15:06;98986.42;;;12.06;67.47
21086;BME280;72320;50.082;20.000;2024-02-28T00:17:40;98986.81;;;11.96;67.65
21086;BME280;72320;50.082;20.000;2024-02-28T00:20:08;98997.04;;;11.98;67.85
21086;BME280;72320;50.082;20.000;2024-02-28T00:22:37;98988.62;;;12.00;67.89
21086;BME280;72320;50.082;20.000;2024-02-28T00:25:04;98983.95;;;11.95;68.05
21086;BME280;72320;50.082;20.000;2024-02-28T00:27:33;98987.52;;;11.91;68.12
21086;BME280;72320;50.082;20.000;2024-02-28T00:30:00;98994.98;;;11.86;68.18
21086;BME280;72320;50.082;20.000;2024-02-28T00:32:26;98995.64;;;11.82;68.26
21086;BME280;72320;50.082;20.000;2024-02-28T00:34:52;98992.38;;;11.75;68.48
21086;BME280;72320;50.082;20.000;2024-02-28T00:37:18;98996.52;;;11.74;68.57
21086;BME280;72320;50.082;20.000;2024-02-28T00:39:45;99000.03;;;11.72;68.66
21086;BME280;72320;50.082;20.000;2024-02-28T00:42:10;99002.15;;;11.74;68.73
21086;BME280;72320;50.082;20.000;2024-02-28T00:44:36;99004.34;;;11.73;68.92
21086;BME280;72320;50.082;20.000;2024-02-28T00:47:02;99003.46;;;11.73;68.88
21086;BME280;72320;50.082;20.000;2024-02-28T00:49:28;99004.70;;;11.77;68.88
21086;BME280;72320;50.082;20.000;2024-02-28T00:51:54;99003.00;;;11.77;68.87
21086;BME280;72320;50.082;20.000;2024-02-28T01:43:54;99006.43;;;10.96;69.91
21086;BME280;72320;50.082;20.000;2024-02-28T01:46:25;99005.13;;;11.05;69.96
21086;BME280;72320;50.082;20.000;2024-02-28T01:48:53;99007.09;;;11.15;69.82
21086;BME280;72320;50.082;20.000;2024-02-28T01:51:21;99007.63;;;11.19;69.77
21086;BME280;72320;50.082;20.000;2024-02-28T01:53:50;99006.69;;;11.25;69.68
21086;BME280;72320;50.082;20.000;2024-02-28T01:56:17;99000.80;;;11.31;69.65
21086;BME280;72320;50.082;20.000;2024-02-28T01:58:47;99000.23;;;11.34;69.51
21086;BME280;72320;50.082;20.000;2024-02-28T02:01:14;99003.62;;;11.36;69.44
21086;BME280;72320;50.082;20.000;2024-02-28T02:03:43;99001.62;;;11.37;69.31
21086;BME280;72320;50.082;20.000;2024-02-28T02:06:09;99004.20;;;11.35;69.31
21086;BME280;72320;50.082;20.000;2024-02-28T02:08:36;99004.98;;;11.32;69.24
21086;BME280;72320;50.082;20.000;2024-02-28T02:11:03;99005.71;;;11.21;69.32
21086;BME280;72320;50.082;20.000;2024-02-28T02:13:29;98995.33;;;11.21;69.48
21086;BME280;72320;50.082;20.000;2024-02-28T02:15:55;98988.69;;;11.24;69.38
21086;BME280;72320;50.082;20.000;2024-02-28T02:18:21;98991.45;;;11.22;69.19
21086;BME280;72320;50.082;20.000;2024-02-28T02:20:51;98994.67;;;11.13;69.25
21086;BME280;72320;50.082;20.000;2024-02-28T02:23:20;98995.06;;;11.03;69.21
21086;BME280;72320;50.082;20.000;2024-02-28T02:25:49;98995.70;;;10.95;69.25
21086;BME280;72320;50.082;20.000;2024-02-28T02:28:15;98992.40;;;10.94;69.09
21086;BME280;72320;50.082;20.000;2024-02-28T02:30:41;98990.52;;;10.95;68.99
21086;BME280;72320;50.082;20.000;2024-02-28T02:33:08;98991.23;;;10.91;68.90
21086;BME280;72320;50.082;20.000;2024-02-28T02:35:34;98989.33;;;10.88;68.61
21086;BME280;72320;50.082;20.000;2024-02-28T02:38:00;98987.36;;;10.88;68.58
21086;BME280;72320;50.082;20.000;2024-02-28T02:40:26;98989.75;;;10.92;68.49
21086;BME280;72320;50.082;20.000;2024-02-28T02:42:52;98991.23;;;10.98;68.48
21086;BME280;72320;50.082;20.000;2024-02-28T02:45:18;98993.16;;;11.02;68.41
21086;BME280;72320;50.082;20.000;2024-02-28T02:47:44;98994.16;;;11.03;68.40
21086;BME280;72320;50.082;20.000;2024-02-28T02:50:10;98999.88;;;11.12;68.24
21086;BME280;72320;50.082;20.000;2024-02-28T02:52:36;99003.73;;;11.18;68.15
21086;BME280;72320;50.082;20.000;2024-02-28T02:55:02;99005.52;;;11.18;67.94
21086;BME280;72320;50.082;20.000;2024-02-28T02:57:28;99008.45;;;11.21;68.08
21086;BME280;72320;50.082;20.000;2024-02-28T02:59:56;99005.46;;;11.24;68.02
21086;BME280;72320;50.082;20.000;2024-02-28T03:02:22;99007.36;;;11.25;67.83
21086;BME280;72320;50.082;20.000;2024-02-28T03:04:48;99006.17;;;11.28;67.90
21086;BME280;72320;50.082;20.000;2024-02-28T03:07:14;99008.74;;;11.32;67.92
21086;BME280;72320;50.082;20.000;2024-02-28T03:09:40;99004.75;;;11.38;67.80
21086;BME280;72320;50.082;20.000;2024-02-28T03:12:07;99002.04;;;11.42;67.82
21086;BME280;72320;50.082;20.000;2024-02-28T03:14:34;99000.20;;;11.44;67.76
21086;BME280;72320;50.082;20.000;2024-02-28T03:17:00;99003.11;;;11.42;67.59
21086;BME280;72320;50.082;20.000;2024-02-28T03:19:26;99002.13;;;11.40;67.57
21086;BME280;72320;50.082;20.000;2024-02-28T03:21:53;99002.64;;;11.41;67.59
21086;BME280;72320;50.082;20.000;2024-02-28T03:24:19;99006.66;;;11.42;67.51
21086;BME280;72320;50.082;20.000;2024-02-28T03:26:44;99008.95;;;11.44;67.43
21086;BME280;72320;50.082;20.000;2024-02-28T03:29:10;99006.45;;;11.47;67.46
21086;BME280;72320;50.082;20.000;2024-02-28T03:31:36;99005.47;;;11.50;67.41
21086;BME280;72320;50.082;20.000;2024-02-28T03:34:02;99004.44;;;11.51;67.38
21086;BME280;72320;50.082;20.000;2024-02-28T03:36:31;99007.58;;;11.52;67.33
21086;BME280;72320;50.082;20.000;2024-02-28T03:38:56;99005.81;;;11.49;67.32
21086;BME280;72320;50.082;20.000;2024-02-28T03:41:22;99007.80;;;11.46;67.34
21086;BME280;72320;50.082;20.000;2024-02-28T03:43:48;99014.45;;;11.45;67.28
21086;BME280;72320;50.082;20.000;2024-02-28T03:46:14;99014.65;;;11.49;67.22
21086;BME280;72320;50.082;20.000;2024-02-28T03:48:40;99015.41;;;11.54;67.20
21086;BME280;72320;50.082;20.000;2024-02-28T03:51:06;99017.48;;;11.56;67.13
21086;BME280;72320;50.082;20.000;2024-02-28T03:53:32;99015.98;;;11.56;67.15
21086;BME280;72320;50.082;20.000;2024-02-28T03:55:58;99015.92;;;11.53;67.10
21086;BME280;72320;50.082;20.000;2024-02-28T03:58:24;99014.93;;;11.55;67.18
21086;BME280;72320;50.082;20.000;2024-02-28T04:00:50;99011.40;;;11.55;67.14
21086;BME280;72320;50.082;20.000;2024-02-28T04:03:15;99013.89;;;11.56;67.24
21086;BME280;72320;50.082;20.000;2024-02-28T04:05:42;99019.17;;;11.54;67.24
21086;BME280;72320;50.082;20.000;2024-02-28T04:08:08;99023.73;;;11.53;67.15
21086;BME280;72320;50.082;20.000;2024-02-28T04:10:33;99028.49;;;11.53;67.19
21086;BME280;72320;50.082;20.000;2024-02-28T04:12:59;99030.24;;;11.57;67.24
21086;BME280;72320;50.082;20.000;2024-02-28T04:15:25;99032.47;;;11.60;67.13
21086;BME280;72320;50.082;20.000;2024-02-28T04:17:52;99033.22;;;11.60;67.17
21086;BME280;72320;50.082;20.000;2024-02-28T04:20:17;99032.77;;;11.57;67.03
21086;BME280;72320;50.082;20.000;2024-02-28T04:22:43;99039.42;;;11.53;67.13
21086;BME280;72320;50.082;20.000;2024-02-28T04:25:09;99044.14;;;11.50;67.24
21086;BME280;72320;50.082;20.000;2024-02-28T04:27:37;99048.80;;;11.48;67.22
21086;BME280;72320;50.082;20.000;2024-02-28T04:30:04;99054.65;;;11.42;67.48
21086;BME280;72320;50.082;20.000;2024-02-28T04:32:30;99053.27;;;11.28;67.62
21086;BME280;72320;50.082;20.000;2024-02-28T04:34:56;99056.61;;;11.21;67.71
21086;BME280;72320;50.082;20.000;2024-02-28T04:37:22;99059.98;;;11.25;67.87
21086;BME280;72320;50.082;20.000;2024-02-28T04:39:48;99060.41;;;11.24;67.97
21086;BME280;72320;50.082;20.000;2024-02-28T04:42:16;99059.82;;;11.20;68.11
21086;BME280;72320;50.082;20.000;2024-02-28T04:44:42;99056.68;;;11.21;68.28
21086;BME280;72320;50.082;20.000;2024-02-28T04:47:08;99052.49;;;11.22;68.30
21086;BME280;72320;50.082;20.000;2024-02-28T04:49:37;99051.27;;;11.23;68.47
21086;BME280;72320;50.082;20.000;2024-02-28T04:52:05;99048.80;;;11.23;68.52
21086;BME280;72320;50.082;20.000;2024-02-28T04:54:32;99048.67;;;11.25;68.58
21086;BME280;72320;50.082;20.000;2024-02-28T04:56:58;99047.40;;;11.23;68.58
21086;BME280;72320;50.082;20.000;2024-02-28T04:59:24;99052.02;;;11.17;68.58
21086;BME280;72320;50.082;20.000;2024-02-28T05:01:50;99050.88;;;11.18;68.81
21086;BME280;72320;50.082;20.000;2024-02-28T05:04:16;99051.16;;;11.19;68.89
21086;BME280;72320;50.082;20.000;2024-02-28T05:06:42;99053.64;;;11.14;69.02
21086;BME280;72320;50.082;20.000;2024-02-28T05:09:08;99055.77;;;11.12;69.22
21086;BME280;72320;50.082;20.000;2024-02-28T05:11:37;99052.89;;;11.10;69.33
21086;BME280;72320;50.082;20.000;2024-02-28T05:14:03;99053.80;;;11.03;69.39
21086;BME280;72320;50.082;20.000;2024-02-28T05:16:28;99054.09;;;10.86;69.55
21086;BME280;72320;50.082;20.000;2024-02-28T05:18:54;99053.33;;;10.79;69.88
21086;BME280;72320;50.082;20.000;2024-02-28T05:21:20;99054.80;;;10.88;70.07
21086;BME280;72320;50.082;20.000;2024-02-28T05:23:46;99052.56;;;10.92;70.05
21086;BME280;72320;50.082;20.000;2024-02-28T05:26:11;99054.05;;;10.97;70.01
21086;BME280;72320;50.082;20.000;2024-02-28T05:28:37;99054.30;;;11.05;69.84
21086;BME280;72320;50.082;20.000;2024-02-28T05:31:24;99055.05;;;11.06;69.61
21086;BME280;72320;50.082;20.000;2024-02-28T05:33:55;99052.79;;;10.98;69.75
21086;BME280;72320;50.082;20.000;2024-02-28T05:36:26;99053.00;;;10.96;69.67
21086;BME280;72320;50.082;20.000;2024-02-28T05:38:55;99052.36;;;10.92;69.76
21086;BME280;72320;50.082;20.000;2024-02-28T05:41:22;99047.21;;;10.92;69.99
21086;BME280;72320;50.082;20.000;2024-02-28T05:43:48;99047.41;;;10.97;70.02
21086;BME280;72320;50.082;20.000;2024-02-28T05:46:16;99046.00;;;10.99;69.86
21086;BME280;72320;50.082;20.000;2024-02-28T05:48:43;99049.30;;;11.02;69.76
21086;BME280;72320;50.082;20.000;2024-02-28T05:51:11;99055.16;;;11.08;69.68
21086;BME280;72320;50.082;20.000;2024-02-28T05:53:39;99054.70;;;11.19;69.52
21086;BME280;72320;50.082;20.000;2024-02-28T05:56:07;99064.05;;;11.38;69.29
21086;BME280;72320;50.082;20.000;2024-02-28T05:58:48;99077.23;;;11.55;68.94
21086;BME280;72320;50.082;20.000;2024-02-28T06:01:17;99089.91;;;11.70;68.62
21086;BME280;72320;50.082;20.000;2024-02-28T06:03:49;99096.14;;;11.81;68.45
21086;BME280;72320;50.082;20.000;2024-02-28T06:06:17;99096.31;;;11.92;68.11
21086;BME280;72320;50.082;20.000;2024-02-28T06:08:43;99098.11;;;12.02;67.98
21086;BME280;72320;50.082;20.000;2024-02-28T06:11:09;99100.07;;;12.11;67.86
21086;BME280;72320;50.082;20.000;2024-02-28T06:13:36;99101.53;;;12.21;67.78
21086;BME280;72320;50.082;20.000;2024-02-28T06:16:03;99100.30;;;12.26;67.70
21086;BME280;72320;50.082;20.000;2024-02-28T06:18:29;99100.00;;;12.25;67.55
21086;BME280;72320;50.082;20.000;2024-02-28T06:20:59;99101.72;;;12.19;67.40
21086;BME280;72320;50.082;20.000;2024-02-28T06:23:26;99103.61;;;12.16;67.34
21086;BME280;72320;50.082;20.000;2024-02-28T06:25:52;99103.66;;;12.10;67.38
21086;BME280;72320;50.082;20.000;2024-02-28T06:28:18;99105.73;;;12.01;67.42
21086;BME280;72320;50.082;20.000;2024-02-28T06:30:44;99112.15;;;11.91;67.36
21086;BME280;72320;50.082;20.000;2024-02-28T06:33:13;99114.22;;;11.78;67.42
21086;BME280;72320;50.082;20.000;2024-02-28T06:35:40;99112.72;;;11.65;67.56
21086;BME280;72320;50.082;20.000;2024-02-28T06:38:06;99117.44;;;11.57;67.67
21086;BME280;72320;50.082;20.000;2024-02-28T06:40:33;99122.33;;;11.51;67.82
21086;BME280;72320;50.082;20.000;2024-02-28T06:43:00;99122.30;;;11.42;67.97
21086;BME280;72320;50.082;20.000;2024-02-28T06:45:27;99121.33;;;11.31;68.11
21086;BME280;72320;50.082;20.000;2024-02-28T06:47:52;99120.42;;;11.34;68.30
21086;BME280;72320;50.082;20.000;2024-02-28T06:50:18;99116.67;;;11.38;68.41
21086;BME280;72320;50.082;20.000;2024-02-28T06:52:44;99118.55;;;11.62;68.52
21086;BME280;72320;50.082;20.000;2024-02-28T06:55:10;99123.13;;;11.99;68.23
21086;BME280;72320;50.082;20.000;2024-02-28T06:57:37;99125.61;;;12.38;67.85
21086;BME280;72320;50.082;20.000;2024-02-28T07:00:09;99128.61;;;12.71;67.29
21086;BME280;72320;50.082;20.000;2024-02-28T07:02:37;99128.37;;;12.97;66.51
21086;BME280;72320;50.082;20.000;2024-02-28T07:05:03;99133.35;;;13.19;65.97
21086;BME280;72320;50.082;20.000;2024-02-28T07:07:33;99136.83;;;13.39;65.41
21086;BME280;72320;50.082;20.000;2024-02-28T07:09:59;99136.52;;;13.56;64.85
21086;BME280;72320;50.082;20.000;2024-02-28T07:12:25;99136.98;;;13.67;64.40
21086;BME280;72320;50.082;20.000;2024-02-28T07:14:51;99139.38;;;13.78;64.01
21086;BME280;72320;50.082;20.000;2024-02-28T07:17:18;99140.16;;;13.92;63.72
21086;BME280;72320;50.082;20.000;2024-02-28T07:19:44;99139.55;;;14.05;63.34
21086;BME280;72320;50.082;20.000;2024-02-28T07:22:09;99143.34;;;14.18;62.96
21086;BME280;72320;50.082;20.000;2024-02-28T07:24:35;99142.02;;;14.32;62.50
21086;BME280;72320;50.082;20.000;2024-02-28T07:27:03;99142.11;;;14.46;62.26
21086;BME280;72320;50.082;20.000;2024-02-28T07:29:29;99138.73;;;14.57;61.89
21086;BME280;72320;50.082;20.000;2024-02-28T07:31:55;99136.70;;;14.64;61.39
21086;BME280;72320;50.082;20.000;2024-02-28T07:34:21;99142.10;;;14.72;61.02
21086;BME280;72320;50.082;20.000;2024-02-28T07:36:47;99144.17;;;14.81;60.62
21086;BME280;72320;50.082;20.000;2024-02-28T07:39:13;99142.59;;;14.81;60.15
21086;BME280;72320;50.082;20.000;2024-02-28T07:41:39;99142.45;;;14.71;59.68
21086;BME280;72320;50.082;20.000;2024-02-28T07:44:08;99139.88;;;14.69;59.43
21086;BME280;72320;50.082;20.000;2024-02-28T07:46:34;99143.39;;;14.81;59.11
21086;BME280;72320;50.082;20.000;2024-02-28T07:49:01;99149.13;;;15.03;58.72
21086;BME280;72320;50.082;20.000;2024-02-28T07:51:28;99150.44;;;15.28;58.19
21086;BME280;72320;50.082;20.000;2024-02-28T07:53:54;99150.52;;;15.47;57.63
21086;BME280;72320;50.082;20.000;2024-02-28T07:56:21;99149.97;;;15.56;57.20
21086;BME280;72320;50.082;20.000;2024-02-28T07:58:47;99144.00;;;15.49;56.71
21086;BME280;72320;50.082;20.000;2024-02-28T08:01:13;99149.38;;;15.29;56.32
21086;BME280;72320;50.082;20.000;2024-02-28T08:03:39;99146.77;;;15.20;56.27
21086;BME280;72320;50.082;20.000;2024-02-28T08:06:05;99147.58;;;15.28;56.42
21086;BME280;72320;50.082;20.000;2024-02-28T08:08:31;99150.81;;;15.37;56.35
21086;BME280;72320;50.082;20.000;2024-02-28T08:10:56;99142.34;;;15.44;56.14
21086;BME280;72320;50.082;20.000;2024-02-28T08:13:22;99134.42;;;15.40;55.82
21086;BME280;72320;50.082;20.000;2024-02-28T08:15:48;99137.55;;;15.24;55.73
21086;BME280;72320;50.082;20.000;2024-02-28T08:18:14;99142.76;;;15.15;55.85
21086;BME280;72320;50.082;20.000;2024-02-28T08:20:40;99145.27;;;15.20;55.92
21086;BME280;72320;50.082;20.000;2024-02-28T08:23:06;99145.07;;;15.30;55.97
21086;BME280;72320;50.082;20.000;2024-02-28T08:25:32;99144.11;;;15.32;55.74
21086;BME280;72320;50.082;20.000;2024-02-28T08:27:58;99147.19;;;15.10;55.39
21086;BME280;72320;50.082;20.000;2024-02-28T08:30:24;99146.75;;;15.02;55.46
21086;BME280;72320;50.082;20.000;2024-02-28T08:32:51;99145.54;;;14.97;55.46
21086;BME280;72320;50.082;20.000;2024-02-28T08:35:18;99147.20;;;14.91;55.59
21086;BME280;72320;50.082;20.000;2024-02-28T08:37:44;99146.73;;;14.93;55.73
21086;BME280;72320;50.082;20.000;2024-02-28T08:40:11;99151.14;;;14.91;55.91
21086;BME280;72320;50.082;20.000;2024-02-28T08:42:37;99151.64;;;15.01;56.08
21086;BME280;72320;50.082;20.000;2024-02-28T08:45:03;99158.77;;;15.13;56.01
21086;BME280;72320;50.082;20.000;2024-02-28T08:47:31;99162.70;;;15.15;56.04
21086;BME280;72320;50.082;20.000;2024-02-28T08:49:57;99159.59;;;15.16;56.01
21086;BME280;72320;50.082;20.000;2024-02-28T08:52:23;99158.02;;;15.16;55.62
21086;BME280;72320;50.082;20.000;2024-02-28T08:54:49;99160.58;;;15.24;55.42
21086;BME280;72320;50.082;20.000;2024-02-28T08:57:15;99158.93;;;15.35;55.24
21086;BME280;72320;50.082;20.000;2024-02-28T08:59:42;99161.67;;;15.28;54.95
21086;BME280;72320;50.082;20.000;2024-02-28T09:02:08;99166.23;;;15.20;54.90
21086;BME280;72320;50.082;20.000;2024-02-28T09:04:36;99168.81;;;15.18;54.95
21086;BME280;72320;50.082;20.000;2024-02-28T09:07:03;99169.83;;;15.17;55.06
21086;BME280;72320;50.082;20.000;2024-02-28T09:09:29;99169.60;;;15.24;55.08
21086;BME280;72320;50.082;20.000;2024-02-28T09:11:57;99167.31;;;15.30;55.13
21086;BME280;72320;50.082;20.000;2024-02-28T09:14:23;99168.91;;;15.40;55.25
21086;BME280;72320;50.082;20.000;2024-02-28T09:16:49;99176.48;;;15.52;55.08
21086;BME280;72320;50.082;20.000;2024-02-28T09:19:15;99174.75;;;15.63;54.91
21086;BME280;72320;50.082;20.000;2024-02-28T09:21:43;99179.96;;;15.72;54.70
21086;BME280;72320;50.082;20.000;2024-02-28T09:24:08;99176.51;;;15.74;54.58
21086;BME280;72320;50.082;20.000;2024-02-28T09:26:39;99172.95;;;15.76;54.55
21086;BME280;72320;50.082;20.000;2024-02-28T09:29:05;99178.53;;;15.78;54.54
21086;BME280;72320;50.082;20.000;2024-02-28T09:31:31;99178.69;;;15.78;54.69
21086;BME280;72320;50.082;20.000;2024-02-28T09:33:56;99177.45;;;15.84;54.74
21086;BME280;72320;50.082;20.000;2024-02-28T09:36:24;99173.23;;;15.71;54.95
21086;BME280;72320;50.082;20.000;2024-02-28T09:38:49;99170.11;;;15.61;55.25
21086;BME280;72320;50.082;20.000;2024-02-28T09:41:15;99170.63;;;15.58;55.41
21086;BME280;72320;50.082;20.000;2024-02-28T09:43:46;99174.05;;;15.59;55.42
21086;BME280;72320;50.082;20.000;2024-02-28T09:46:15;99175.36;;;15.60;55.42
21086;BME280;72320;50.082;20.000;2024-02-28T09:48:41;99181.86;;;15.75;55.26
21086;BME280;72320;50.082;20.000;2024-02-28T09:51:09;99182.91;;;15.99;55.01
21086;BME280;72320;50.082;20.000;2024-02-28T09:53:38;99180.69;;;16.25;54.80
21086;BME280;72320;50.082;20.000;2024-02-28T09:56:06;99181.59;;;16.49;54.33
21086;BME280;72320;50.082;20.000;2024-02-28T09:58:33;99179.42;;;16.73;53.98
21086;BME280;72320;50.082;20.000;2024-02-28T10:01:02;99183.19;;;16.87;53.38
21086;BME280;72320;50.082;20.000;2024-02-28T10:03:30;99181.10;;;16.99;52.80
21086;BME280;72320;50.082;20.000;2024-02-28T10:05:58;99184.06;;;17.17;52.32
21086;BME280;72320;50.082;20.000;2024-02-28T10:08:23;99184.51;;;17.27;51.94
21086;BME280;72320;50.082;20.000;2024-02-28T10:10:50;99185.87;;;17.31;51.47
21086;BME280;72320;50.082;20.000;2024-02-28T10:13:22;99187.63;;;17.31;51.28
21086;BME280;72320;50.082;20.000;2024-02-28T10:15:49;99186.05;;;17.35;51.18
21086;BME280;72320;50.082;20.000;2024-02-28T10:18:15;99182.66;;;17.40;50.94
21086;BME280;72320;50.082;20.000;2024-02-28T10:20:42;99183.74;;;17.34;50.52
21086;BME280;72320;50.082;20.000;2024-02-28T10:23:08;99182.94;;;17.33;50.50
21086;BME280;72320;50.082;20.000;2024-02-28T10:25:46;99181.16;;;17.40;50.28
21086;BME280;72320;50.082;20.000;2024-02-28T10:28:12;99184.64;;;17.43;50.04
21086;BME280;72320;50.082;20.000;2024-02-28T10:30:44;99186.27;;;17.51;49.98
21086;BME280;72320;50.082;20.000;2024-02-28T10:33:14;99183.40;;;17.59;49.88
21086;BME280;72320;50.082;20.000;2024-02-28T10:35:42;99184.94;;;17.66;49.80
21086;BME280;72320;50.082;20.000;2024-02-28T10:38:14;99187.59;;;17.74;49.68
21086;BME280;72320;50.082;20.000;2024-02-28T10:40:43;99187.13;;;17.86;49.60
21086;BME280;72320;50.082;20.000;2024-02-28T10:43:10;99186.53;;;17.96;49.37
21086;BME280;72320;50.082;20.000;2024-02-28T10:45:37;99188.02;;;18.08;49.08
21086;BME280;72320;50.082;20.000;2024-02-28T10:48:11;99187.33;;;18.13;48.62
21086;BME280;72320;50.082;20.000;2024-02-28T10:50:40;99186.62;;;18.15;48.42
21086;BME280;72320;50.082;20.000;2024-02-28T10:53:14;99185.92;;;18.29;48.32
21086;BME280;72320;50.082;20.000;2024-02-28T10:55:41;99181.79;;;18.41;48.14
21086;BME280;72320;50.082;20.000;2024-02-28T10:58:09;99182.11;;;18.55;47.78
21086;BME280;72320;50.082;20.000;2024-02-28T11:00:42;99184.83;;;18.67;47.63
21086;BME280;72320;50.082;20.000;2024-02-28T11:03:12;99189.70;;;18.70;47.04
21086;BME280;72320;50.082;20.000;2024-02-28T11:05:42;99188.59;;;18.70;46.88
21086;BME280;72320;50.082;20.000;2024-02-28T11:08:19;99188.63;;;18.71;46.65
21086;BME280;72320;50.082;20.000;2024-02-28T11:10:45;99191.23;;;18.80;46.63
21086;BME280;72320;50.082;20.000;2024-02-28T11:13:27;99191.04;;;18.89;46.26
21086;BME280;72320;50.082;20.000;2024-02-28T11:15:54;99190.84;;;18.95;46.20
21086;BME280;72320;50.082;20.000;2024-02-28T11:18:21;99193.80;;;18.93;46.04
21086;BME280;72320;50.082;20.000;2024-02-28T11:20:46;99198.06;;;18.82;45.84
21086;BME280;72320;50.082;20.000;2024-02-28T11:23:17;99196.33;;;18.69;46.03
21086;BME280;72320;50.082;20.000;2024-02-28T11:25:43;99199.08;;;18.65;46.12
21086;BME280;72320;50.082;20.000;2024-02-28T11:28:09;99196.30;;;18.74;46.19
21086;BME280;72320;50.082;20.000;2024-02-28T11:30:35;99193.27;;;18.86;46.05
21086;BME280;72320;50.082;20.000;2024-02-28T11:33:02;99189.30;;;18.89;45.93
21086;BME280;72320;50.082;20.000;2024-02-28T11:35:28;99195.60;;;18.89;45.89
21086;BME280;72320;50.082;20.000;2024-02-28T11:37:55;99192.88;;;18.90;45.76
21086;BME280;72320;50.082;20.000;2024-02-28T11:40:24;99192.09;;;18.83;45.74
21086;BME280;72320;50.082;20.000;2024-02-28T11:42:52;99187.65;;;18.89;45.87
21086;BME280;72320;50.082;20.000;2024-02-28T11:45:19;99189.23;;;19.05;45.54
21086;BME280;72320;50.082;20.000;2024-02-28T11:47:45;99186.23;;;19.16;45.24
21086;BME280;72320;50.082;20.000;2024-02-28T11:50:11;99190.98;;;19.24;45.23
21086;BME280;72320;50.082;20.000;2024-02-28T11:52:37;99191.48;;;19.25;45.08
21086;BME280;72320;50.082;20.000;2024-02-28T11:55:04;99191.15;;;19.20;45.16
21086;BME280;72320;50.082;20.000;2024-02-28T11:57:30;99194.96;;;19.18;45.20
21086;BME280;72320;50.082;20.000;2024-02-28T12:00:09;99189.99;;;19.18;45.18
21086;BME280;72320;50.082;20.000;2024-02-28T12:02:36;99184.71;;;19.23;45.15
21086;BME280;72320;50.082;20.000;2024-02-28T12:05:02;99187.21;;;19.25;45.09
21086;BME280;72320;50.082;20.000;2024-02-28T12:07:30;99186.06;;;19.31;45.00
21086;BME280;72320;50.082;20.000;2024-02-28T12:10:00;99185.91;;;19.35;45.02
21086;BME280;72320;50.082;20.000;2024-02-28T12:12:27;99184.51;;;19.36;44.87
21086;BME280;72320;50.082;20.000;2024-02-28T12:14:58;99184.71;;;19.27;44.86
21086;BME280;72320;50.082;20.000;2024-02-28T12:17:31;99191.89;;;19.06;45.01
21086;BME280;72320;50.082;20.000;2024-02-28T12:20:00;99188.19;;;18.85;45.20
21086;BME280;72320;50.082;20.000;2024-02-28T12:22:26;99187.38;;;18.61;45.32
21086;BME280;72320;50.082;20.000;2024-02-28T12:24:52;99186.54;;;18.41;45.46
21086;BME280;72320;50.082;20.000;2024-02-28T12:27:19;99186.66;;;18.43;45.66
21086;BME280;72320;50.082;20.000;2024-02-28T12:29:45;99186.67;;;18.47;45.59
21086;BME280;72320;50.082;20.000;2024-02-28T12:32:12;99188.13;;;18.42;45.56
21086;BME280;72320;50.082;20.000;2024-02-28T12:34:38;99185.89;;;18.31;45.79
21086;BME280;72320;50.082;20.000;2024-02-28T12:37:04;99183.98;;;18.24;45.89
21086;BME280;72320;50.082;20.000;2024-02-28T12:39:31;99186.27;;;18.30;46.01
21086;BME280;72320;50.082;20.000;2024-02-28T12:42:00;99187.88;;;18.38;45.95
21086;BME280;72320;50.082;20.000;2024-02-28T12:44:26;99190.48;;;18.44;45.88
21086;BME280;72320;50.082;20.000;2024-02-28T12:46:52;99187.57;;;18.48;45.77
21086;BME280;72320;50.082;20.000;2024-02-28T12:49:18;99184.00;;;18.55;45.79
21086;BME280;72320;50.082;20.000;2024-02-28T12:51:54;99187.06;;;18.61;45.71
21086;BME280;72320;50.082;20.000;2024-02-28T12:54:20;99195.90;;;18.64;45.74
21086;BME280;72320;50.082;20.000;2024-02-28T12:56:46;99195.07;;;18.65;45.69
21086;BME280;72320;50.082;20.000;2024-02-28T12:59:13;99198.34;;;18.56;45.60
21086;BME280;72320;50.082;20.000;2024-02-28T13:01:40;99197.42;;;18.44;45.78
21086;BME280;72320;50.082;20.000;2024-02-28T13:04:06;99196.31;;;18.44;45.93
21086;BME280;72320;50.082;20.000;2024-02-28T13:06:32;99192.81;;;18.50;46.02
21086;BME280;72320;50.082;20.000;2024-02-28T13:08:58;99196.42;;;18.56;45.84
21086;BME280;72320;50.082;20.000;2024-02-28T13:11:24;99200.36;;;18.58;45.93
21086;BME280;72320;50.082;20.000;2024-02-28T13:13:52;99199.10;;;18.55;45.72
21086;BME280;72320;50.082;20.000;2024-02-28T13:16:19;99200.73;;;18.48;45.78
21086;BME280;72320;50.082;20.000;2024-02-28T13:18:46;99207.29;;;18.32;45.94
21086;BME280;72320;50.082;20.000;2024-02-28T13:21:12;99201.52;;;18.24;46.26
21086;BME280;72320;50.082;20.000;2024-02-28T13:23:38;99199.77;;;18.20;46.25
21086;BME280;72320;50.082;20.000;2024-02-28T13:26:05;99204.52;;;18.08;46.53
21086;BME280;72320;50.082;20.000;2024-02-28T13:28:32;99202.13;;;18.08;46.75
21086;BME280;72320;50.082;20.000;2024-02-28T13:31:02;99203.09;;;18.08;46.79
21086;BME280;72320;50.082;20.000;2024-02-28T13:33:30;99207.84;;;17.99;46.82
21086;BME280;72320;50.082;20.000;2024-02-28T13:35:56;99207.23;;;17.77;47.04
21086;BME280;72320;50.082;20.000;2024-02-28T13:38:22;99206.88;;;17.70;47.33